createdAt,value
2018-06-28T00:00:41.845Z,17.86
2018-06-28T00:03:10.845Z,17.87
2018-06-28T00:05:39.856Z,17.89
2018-06-28T00:08:08.871Z,17.90
2018-06-28T00:10:37.941Z,17.90
2018-06-28T00:13:07.108Z,17.90
2018-06-28T00:15:36.140Z,17.91
2018-06-28T00:18:05.133Z,17.91
2018-06-28T00:20:34.118Z,17.89
2018-06-28T00:23:03.177Z,17.90
2018-06-28T00:25:32.216Z,17.89
2018-06-28T00:28:01.203Z,17.90
2018-06-28T00:30:30.244Z,17.86
2018-06-28T00:32:59.216Z,17.81
2018-06-28T00:35:28.305Z,17.77
2018-06-28T00:37:57.397Z,17.80
2018-06-28T00:40:26.449Z,17.81
2018-06-28T00:42:55.448Z,17.73
2018-06-28T00:45:24.552Z,17.72
2018-06-28T00:47:53.652Z,17.72
2018-06-28T00:50:22.719Z,17.68
2018-06-28T00:52:51.761Z,17.72
2018-06-28T00:55:20.788Z,17.76
2018-06-28T00:57:49.837Z,17.76
2018-06-28T01:00:18.896Z,17.76
2018-06-28T01:02:47.869Z,17.75
2018-06-28T01:05:16.868Z,17.76
2018-06-28T01:07:45.864Z,17.79
2018-06-28T01:10:14.856Z,17.82
2018-06-28T01:12:43.920Z,17.83
2018-06-28T01:15:12.914Z,17.78
2018-06-28T01:17:41.990Z,17.82
2018-06-28T01:20:11.102Z,17.81
2018-06-28T01:22:40.080Z,17.77
2018-06-28T01:25:09.182Z,17.80
2018-06-28T01:27:38.192Z,17.86
2018-06-28T01:30:07.862Z,17.88
2018-06-28T01:32:37.086Z,17.89
2018-06-28T01:35:06.348Z,17.89
2018-06-28T01:37:35.404Z,17.87
2018-06-28T01:40:04.635Z,17.88
2018-06-28T01:43:39.288Z,17.91
2018-06-28T01:46:08.357Z,17.88
2018-06-28T01:48:37.373Z,17.83
2018-06-28T01:51:06.476Z,17.82
2018-06-28T01:53:35.552Z,17.82
2018-06-28T01:56:04.784Z,17.81
2018-06-28T01:58:33.837Z,17.79
2018-06-28T02:01:02.934Z,17.76
2018-06-28T02:03:31.984Z,17.79
2018-06-28T02:06:00.960Z,17.82
2018-06-28T02:08:29.993Z,17.79
2018-06-28T02:10:58.972Z,17.76
2018-06-28T02:13:27.968Z,17.80
2018-06-28T02:15:57.064Z,17.74
2018-06-28T02:18:26.065Z,17.69
2018-06-28T02:20:55.104Z,17.70
2018-06-28T02:23:24.108Z,17.72
2018-06-28T02:25:53.109Z,17.70
2018-06-28T02:28:22.103Z,17.61
2018-06-28T02:30:51.081Z,17.62
2018-06-28T02:33:20.181Z,17.64
2018-06-28T02:35:49.225Z,17.65
2018-06-28T02:38:18.213Z,17.66
2018-06-28T02:40:47.275Z,17.68
2018-06-28T02:43:16.312Z,17.68
2018-06-28T02:45:45.361Z,17.73
2018-06-28T02:48:14.393Z,17.75
2018-06-28T02:50:43.443Z,17.76
2018-06-28T02:53:12.498Z,17.73
2018-06-28T02:55:41.592Z,17.71
2018-06-28T02:58:10.705Z,17.74
2018-06-28T03:00:39.716Z,17.77
2018-06-28T03:03:08.761Z,17.78
2018-06-28T03:05:37.897Z,17.80
2018-06-28T03:08:07.400Z,17.83
2018-06-28T03:10:36.432Z,17.80
2018-06-28T03:13:05.565Z,17.75
2018-06-28T03:15:34.605Z,17.75
2018-06-28T03:18:03.678Z,17.75
2018-06-28T03:20:32.740Z,17.75
2018-06-28T03:23:01.874Z,17.74
2018-06-28T03:25:30.937Z,17.78
2018-06-28T03:27:59.911Z,17.77
2018-06-28T03:30:28.891Z,17.80
2018-06-28T03:32:57.888Z,17.85
2018-06-28T03:35:27.040Z,17.81
2018-06-28T03:37:56.101Z,17.83
2018-06-28T03:40:25.094Z,17.86
2018-06-28T03:42:54.100Z,17.89
2018-06-28T03:45:23.072Z,17.87
2018-06-28T03:47:52.121Z,17.91
2018-06-28T03:50:21.153Z,17.94
2018-06-28T03:52:50.241Z,17.97
2018-06-28T03:55:19.332Z,18.02
2018-06-28T03:57:48.328Z,18.02
2018-06-28T04:00:17.452Z,18.01
2018-06-28T04:02:46.432Z,18.03
2018-06-28T04:05:15.403Z,18.02
2018-06-28T04:07:44.505Z,18.04
2018-06-28T04:10:13.464Z,18.08
2018-06-28T04:12:42.568Z,18.12
2018-06-28T04:15:11.547Z,18.15
2018-06-28T04:17:40.523Z,18.21
2018-06-28T04:20:09.617Z,18.27
2018-06-28T04:22:38.679Z,18.32
2018-06-28T04:25:07.729Z,18.35
2018-06-28T04:27:36.792Z,18.41
2018-06-28T04:30:06.556Z,18.49
2018-06-28T04:32:35.556Z,18.51
2018-06-28T04:35:04.625Z,18.57
2018-06-28T04:37:33.740Z,18.75
2018-06-28T04:40:02.744Z,18.85
2018-06-28T04:42:31.794Z,18.94
2018-06-28T04:45:00.800Z,19.01
2018-06-28T04:47:29.832Z,19.02
2018-06-28T04:49:58.882Z,19.05
2018-06-28T04:52:27.936Z,19.07
2018-06-28T04:54:57.069Z,19.12
2018-06-28T04:57:26.093Z,19.14
2018-06-28T04:59:55.056Z,19.21
2018-06-28T05:02:24.170Z,19.29
2018-06-28T05:04:53.274Z,19.37
2018-06-28T05:07:22.384Z,19.49
2018-06-28T05:09:51.409Z,19.66
2018-06-28T05:12:20.391Z,19.80
2018-06-28T05:14:49.504Z,19.86
2018-06-28T05:17:18.548Z,19.83
2018-06-28T05:19:47.528Z,19.84
2018-06-28T05:22:16.511Z,19.84
2018-06-28T05:24:45.593Z,19.76
2018-06-28T05:27:14.651Z,19.66
2018-06-28T05:29:43.617Z,19.67
2018-06-28T05:32:12.657Z,19.76
2018-06-28T05:34:41.710Z,19.99
2018-06-28T05:37:10.824Z,20.17
2018-06-28T05:39:39.990Z,20.37
2018-06-28T05:42:08.980Z,20.58
2018-06-28T05:44:38.164Z,20.80
2018-06-28T05:47:07.270Z,21.05
2018-06-28T05:49:36.296Z,21.47
2018-06-28T05:52:05.407Z,21.75
2018-06-28T05:54:34.432Z,22.04
2018-06-28T05:57:03.700Z,22.21
2018-06-28T05:59:32.685Z,22.31
2018-06-28T06:02:01.780Z,22.42
2018-06-28T06:04:30.812Z,22.53
2018-06-28T06:06:59.845Z,22.61
2018-06-28T06:09:28.817Z,22.65
2018-06-28T06:11:57.865Z,22.75
2018-06-28T06:14:26.930Z,22.70
2018-06-28T06:16:55.977Z,22.80
2018-06-28T06:19:25.025Z,22.93
2018-06-28T06:21:53.988Z,23.04
2018-06-28T06:24:22.997Z,23.20
2018-06-28T06:26:51.960Z,23.23
2018-06-28T06:29:21.124Z,23.30
2018-06-28T06:31:50.296Z,23.23
2018-06-28T06:34:19.329Z,23.17
2018-06-28T06:36:48.344Z,23.20
2018-06-28T06:39:17.329Z,23.17
2018-06-28T06:41:46.462Z,23.17
2018-06-28T06:44:15.460Z,23.04
2018-06-28T06:46:44.440Z,23.17
2018-06-28T06:49:13.533Z,23.56
2018-06-28T06:51:42.531Z,23.72
2018-06-28T06:54:11.585Z,23.87
2018-06-28T06:56:40.681Z,23.96
2018-06-28T06:59:09.733Z,23.85
2018-06-28T07:01:39.617Z,23.57
2018-06-28T07:04:08.609Z,23.24
2018-06-28T07:06:37.661Z,23.00
2018-06-28T07:09:10.137Z,22.68
2018-06-28T07:11:39.308Z,22.42
2018-06-28T07:14:08.374Z,22.14
2018-06-28T07:16:37.352Z,21.95
2018-06-28T07:19:06.520Z,21.82
2018-06-28T07:21:35.511Z,21.82
2018-06-28T07:24:04.673Z,21.88
2018-06-28T07:26:33.722Z,21.95
2018-06-28T07:29:02.748Z,21.96
2018-06-28T07:31:31.796Z,21.96
2018-06-28T07:34:00.893Z,21.98
2018-06-28T07:36:29.962Z,21.97
2018-06-28T07:38:58.971Z,21.97
2018-06-28T07:41:28.066Z,22.04
2018-06-28T07:43:57.145Z,22.07
2018-06-28T07:46:26.079Z,22.22
2018-06-28T07:48:55.169Z,22.28
2018-06-28T07:51:24.295Z,22.38
2018-06-28T07:53:53.261Z,22.39
2018-06-28T07:56:22.564Z,22.41
2018-06-28T07:58:51.608Z,22.35
2018-06-28T08:01:20.635Z,22.43
2018-06-28T08:03:50.154Z,22.54
2018-06-28T08:06:19.235Z,22.64
2018-06-28T08:08:48.568Z,22.89
2018-06-28T08:11:17.708Z,23.16
2018-06-28T08:13:46.776Z,23.58
2018-06-28T08:16:15.792Z,23.86
2018-06-28T08:18:44.848Z,23.80
2018-06-28T08:21:13.965Z,23.68
2018-06-28T08:23:43.069Z,23.28
2018-06-28T08:26:12.073Z,23.38
2018-06-28T08:28:41.104Z,23.27
2018-06-28T08:31:10.155Z,23.08
2018-06-28T08:33:39.160Z,22.90
2018-06-28T08:36:08.267Z,22.81
2018-06-28T08:38:37.310Z,22.72
2018-06-28T08:41:06.376Z,22.82
2018-06-28T08:43:35.488Z,22.98
2018-06-28T08:46:04.560Z,23.26
2018-06-28T08:48:33.548Z,23.58
2018-06-28T08:51:02.540Z,23.67
2018-06-28T08:53:31.585Z,23.71
2018-06-28T08:56:00.676Z,23.66
2018-06-28T08:58:29.635Z,23.70
2018-06-28T09:00:58.623Z,23.80
2018-06-28T09:03:27.592Z,23.90
2018-06-28T09:05:56.569Z,24.01
2018-06-28T09:08:25.625Z,24.27
2018-06-28T09:10:54.774Z,24.66
2018-06-28T09:13:23.748Z,25.13
2018-06-28T09:15:52.784Z,25.80
2018-06-28T09:18:21.857Z,26.43
2018-06-28T09:20:50.929Z,26.75
2018-06-28T09:23:19.972Z,26.93
2018-06-28T09:25:49.001Z,27.07
2018-06-28T09:28:18.049Z,27.04
2018-06-28T09:30:47.089Z,26.97
2018-06-28T09:33:16.292Z,26.81
2018-06-28T09:35:45.322Z,26.88
2018-06-28T09:38:14.390Z,27.02
2018-06-28T09:40:43.479Z,27.14
2018-06-28T09:43:12.517Z,27.14
2018-06-28T09:45:41.697Z,27.16
2018-06-28T09:48:10.672Z,27.12
2018-06-28T09:50:39.649Z,27.16
2018-06-28T09:53:08.620Z,26.95
2018-06-28T09:55:37.580Z,26.57
2018-06-28T09:58:06.642Z,26.52
2018-06-28T10:00:40.552Z,26.47
2018-06-28T10:03:09.609Z,26.22
2018-06-28T10:05:38.916Z,25.91
2018-06-28T10:08:08.470Z,25.59
2018-06-28T10:10:37.489Z,25.37
2018-06-28T10:13:06.575Z,25.44
2018-06-28T10:15:35.692Z,25.70
2018-06-28T10:18:04.770Z,25.89
2018-06-28T10:20:33.812Z,26.19
2018-06-28T10:23:02.792Z,26.21
2018-06-28T10:25:31.905Z,26.03
2018-06-28T10:28:01.068Z,25.77
2018-06-28T10:30:30.024Z,25.60
2018-06-28T10:32:58.995Z,25.28
2018-06-28T10:35:27.971Z,25.05
2018-06-28T10:37:57.055Z,24.84
2018-06-28T10:40:26.104Z,24.63
2018-06-28T10:42:55.220Z,24.44
2018-06-28T10:45:24.261Z,24.27
2018-06-28T10:47:53.327Z,24.14
2018-06-28T10:50:22.387Z,23.98
2018-06-28T10:52:51.427Z,23.98
2018-06-28T10:55:20.396Z,23.96
2018-06-28T10:57:49.616Z,23.96
2018-06-28T11:00:18.691Z,23.94
2018-06-28T11:02:47.729Z,24.02
2018-06-28T11:05:16.827Z,24.17
2018-06-28T11:07:45.875Z,24.14
2018-06-28T11:10:14.916Z,24.14
2018-06-28T11:12:43.895Z,24.02
2018-06-28T11:15:12.940Z,23.85
2018-06-28T11:17:41.968Z,23.67
2018-06-28T11:20:10.935Z,23.49
2018-06-28T11:22:39.957Z,23.21
2018-06-28T11:25:09.133Z,22.96
2018-06-28T11:27:38.092Z,22.66
2018-06-28T11:30:07.168Z,22.34
2018-06-28T11:32:36.201Z,22.05
2018-06-28T11:35:05.331Z,21.81
2018-06-28T11:37:34.435Z,21.66
2018-06-28T11:40:03.519Z,21.54
2018-06-28T11:42:32.552Z,21.41
2018-06-28T11:45:01.525Z,21.28
2018-06-28T11:47:30.499Z,21.14
2018-06-28T11:49:59.480Z,21.01
2018-06-28T11:52:28.495Z,20.87
2018-06-28T11:54:57.541Z,20.65
2018-06-28T11:57:26.585Z,20.53
2018-06-28T11:59:55.660Z,20.44
2018-06-28T12:02:25.120Z,20.26
2018-06-28T12:04:54.105Z,20.18
2018-06-28T12:07:23.179Z,20.13
2018-06-28T12:09:52.136Z,20.03
2018-06-28T12:12:21.106Z,19.99
2018-06-28T12:14:50.327Z,20.01
2018-06-28T12:17:19.357Z,20.07
2018-06-28T12:19:54.939Z,20.11
2018-06-28T12:22:24.022Z,20.23
2018-06-28T12:24:53.057Z,20.26
2018-06-28T12:27:22.213Z,20.22
2018-06-28T12:29:51.180Z,20.18
2018-06-28T12:32:20.334Z,20.21
2018-06-28T12:34:49.365Z,20.28
2018-06-28T12:37:18.356Z,20.28
2018-06-28T12:39:47.344Z,20.39
2018-06-28T12:42:16.392Z,20.40
2018-06-28T12:44:45.428Z,20.47
2018-06-28T12:47:57.919Z,20.45
2018-06-28T12:50:27.033Z,20.54
2018-06-28T12:53:00.077Z,20.54
2018-06-28T12:55:42.083Z,20.54
2018-06-28T12:58:11.330Z,20.52
2018-06-28T13:00:40.383Z,20.52
2018-06-28T13:03:09.383Z,20.57
2018-06-28T13:05:38.341Z,20.58
2018-06-28T13:08:07.408Z,20.71
2018-06-28T13:10:36.380Z,20.91
2018-06-28T13:13:05.424Z,21.07
2018-06-28T13:15:34.417Z,21.27
2018-06-28T13:18:03.393Z,21.47
2018-06-28T13:20:32.471Z,21.72
2018-06-28T13:23:01.510Z,21.87
2018-06-28T13:25:30.548Z,21.95
2018-06-28T13:27:59.591Z,21.88
2018-06-28T13:30:28.635Z,21.73
2018-06-28T13:32:57.683Z,21.61
2018-06-28T13:35:26.640Z,21.54
2018-06-28T13:37:55.684Z,21.43
2018-06-28T13:40:24.749Z,21.35
2018-06-28T13:42:53.729Z,21.24
2018-06-28T13:45:22.852Z,21.15
2018-06-28T13:47:51.853Z,21.03
2018-06-28T13:50:20.836Z,20.95
2018-06-28T13:52:50.145Z,20.87
2018-06-28T13:55:19.148Z,20.82
2018-06-28T13:57:48.321Z,20.81
2018-06-28T14:00:17.340Z,20.82
2018-06-28T14:02:46.361Z,20.84
2018-06-28T14:05:15.818Z,20.86
2018-06-28T14:07:44.852Z,20.89
2018-06-28T14:10:14.025Z,20.87
2018-06-28T14:12:42.995Z,20.84
2018-06-28T14:15:11.979Z,20.88
2018-06-28T14:17:41.032Z,20.82
2018-06-28T14:20:10.660Z,20.77
2018-06-28T14:22:39.741Z,20.79
2018-06-28T14:25:08.717Z,20.84
2018-06-28T14:27:37.753Z,20.91
2018-06-28T14:30:07.984Z,20.86
2018-06-28T14:32:37.033Z,21.01
2018-06-28T14:35:06.536Z,21.14
2018-06-28T14:37:35.534Z,21.25
2018-06-28T14:40:05.183Z,21.34
2018-06-28T14:42:34.263Z,21.40
2018-06-28T14:45:03.645Z,21.43
2018-06-28T14:47:32.710Z,21.45
2018-06-28T14:50:01.689Z,21.46
2018-06-28T14:52:30.813Z,21.58
2018-06-28T14:54:59.904Z,21.77
2018-06-28T14:57:28.911Z,21.87
2018-06-28T14:59:58.018Z,22.01
2018-06-28T15:02:27.093Z,22.11
2018-06-28T15:04:56.185Z,22.20
2018-06-28T15:07:25.181Z,22.23
2018-06-28T15:09:54.216Z,22.21
2018-06-28T15:12:23.532Z,22.24
2018-06-28T15:14:52.592Z,22.25
2018-06-28T15:17:21.642Z,22.25
2018-06-28T15:19:50.645Z,22.23
2018-06-28T15:22:19.681Z,22.25
2018-06-28T15:24:48.767Z,22.24
2018-06-28T15:27:17.806Z,22.27
2018-06-28T15:29:46.921Z,22.29
2018-06-28T15:32:15.915Z,22.41
2018-06-28T15:34:44.948Z,22.56
2018-06-28T15:37:14.057Z,22.56
2018-06-28T15:39:43.056Z,22.45
2018-06-28T15:42:12.144Z,22.37
2018-06-28T15:44:41.110Z,22.34
2018-06-28T15:47:10.060Z,22.30
2018-06-28T15:49:39.111Z,22.33
2018-06-28T15:52:08.172Z,22.20
2018-06-28T15:54:37.160Z,22.11
2018-06-28T15:57:06.308Z,22.10
2018-06-28T15:59:35.441Z,22.01
2018-06-28T16:02:04.477Z,21.91
2018-06-28T16:04:33.530Z,21.70
2018-06-28T16:07:02.548Z,21.61
2018-06-28T16:09:31.612Z,21.52
2018-06-28T16:12:00.745Z,21.50
2018-06-28T16:14:29.744Z,21.29
2018-06-28T16:16:58.711Z,21.21
2018-06-28T16:19:27.828Z,21.13
2018-06-28T16:21:56.859Z,20.98
2018-06-28T16:24:26.345Z,20.94
2018-06-28T16:26:55.312Z,20.85
2018-06-28T16:29:24.349Z,20.85
2018-06-28T16:31:53.510Z,20.95
2018-06-28T16:34:22.467Z,20.91
2018-06-28T16:36:51.592Z,20.92
2018-06-28T16:39:20.566Z,20.94
2018-06-28T16:41:49.633Z,20.93
2018-06-28T16:44:18.620Z,20.87
2018-06-28T16:46:47.612Z,20.83
2018-06-28T16:49:16.884Z,20.77
2018-06-28T16:51:45.831Z,20.63
2018-06-28T16:54:14.944Z,20.60
2018-06-28T16:56:43.974Z,20.54
2018-06-28T16:59:13.000Z,20.55
2018-06-28T17:01:42.076Z,20.37
2018-06-28T17:04:11.144Z,20.20
2018-06-28T17:06:40.120Z,20.07
2018-06-28T17:09:10.262Z,20.01
2018-06-28T17:11:39.329Z,19.90
2018-06-28T17:14:08.976Z,19.77
2018-06-28T17:16:37.924Z,19.70
2018-06-28T17:19:06.959Z,19.57
2018-06-28T17:21:36.015Z,19.58
2018-06-28T17:24:05.213Z,19.47
2018-06-28T17:26:34.264Z,19.44
2018-06-28T17:29:03.292Z,19.34
2018-06-28T17:31:32.277Z,19.30
2018-06-28T17:34:01.278Z,19.24
2018-06-28T17:36:30.243Z,19.21
2018-06-28T17:38:59.693Z,19.15
2018-06-28T17:41:28.737Z,19.11
2018-06-28T17:43:57.689Z,19.06
2018-06-28T17:46:26.729Z,19.11
2018-06-28T17:48:55.824Z,19.08
2018-06-28T17:51:24.888Z,19.09
2018-06-28T17:53:54.008Z,19.05
2018-06-28T17:56:23.222Z,18.99
2018-06-28T17:58:52.249Z,18.86
2018-06-28T18:01:21.300Z,18.80
2018-06-28T18:03:50.472Z,18.74
2018-06-28T18:06:19.551Z,18.69
2018-06-28T18:08:48.593Z,18.66
2018-06-28T18:11:17.657Z,18.64
2018-06-28T18:13:46.640Z,18.58
2018-06-28T18:16:15.747Z,18.58
2018-06-28T18:18:44.783Z,18.58
2018-06-28T18:21:13.897Z,18.55
2018-06-28T18:23:42.910Z,18.49
2018-06-28T18:26:11.864Z,18.48
2018-06-28T18:28:40.984Z,18.45
2018-06-28T18:31:09.964Z,18.38
2018-06-28T18:33:38.941Z,18.40
2018-06-28T18:36:07.973Z,18.42
2018-06-28T18:38:36.962Z,18.41
2018-06-28T18:41:06.111Z,18.42
2018-06-28T18:43:35.087Z,18.37
2018-06-28T18:46:04.264Z,18.32
2018-06-28T18:48:33.259Z,18.30
2018-06-28T18:51:02.253Z,18.28
2018-06-28T18:53:31.367Z,18.33
2018-06-28T18:56:01.043Z,18.36
2018-06-28T18:58:30.500Z,18.38
2018-06-28T19:00:59.631Z,18.43
2018-06-28T19:03:28.608Z,18.43
2018-06-28T19:05:57.683Z,18.45
2018-06-28T19:08:26.698Z,18.45
2018-06-28T19:10:57.697Z,18.43
2018-06-28T19:13:27.684Z,18.44
2018-06-28T19:16:01.548Z,18.45
2018-06-28T19:18:30.580Z,18.46
2018-06-28T19:21:04.645Z,18.44
2018-06-28T19:23:38.616Z,18.46
2018-06-28T19:26:07.765Z,18.45
2018-06-28T19:28:36.807Z,18.49
2018-06-28T19:31:10.847Z,18.53
2018-06-28T19:33:39.875Z,18.47
2018-06-28T19:36:08.890Z,18.40
2018-06-28T19:38:42.944Z,18.36
2018-06-28T19:41:16.987Z,18.36
2018-06-28T19:43:46.041Z,18.30
2018-06-28T19:46:15.042Z,18.28
2018-06-28T19:48:44.384Z,18.31
2018-06-28T19:51:18.372Z,18.32
2018-06-28T19:53:47.345Z,18.36
2018-06-28T19:56:16.372Z,18.36
2018-06-28T19:58:45.437Z,18.37
2018-06-28T20:01:19.483Z,18.35
2018-06-28T20:03:53.353Z,18.35
2018-06-28T20:06:22.408Z,18.34
2018-06-28T20:08:51.629Z,18.30
2018-06-28T20:11:20.540Z,18.24
2018-06-28T20:13:54.737Z,18.22
2018-06-28T20:16:29.053Z,18.19
2018-06-28T20:19:02.912Z,18.20
2018-06-28T20:21:32.027Z,18.15
2018-06-28T20:24:00.993Z,18.15
2018-06-28T20:26:34.910Z,18.15
2018-06-28T20:30:09.447Z,18.12
2018-06-28T20:32:43.507Z,18.11
2018-06-28T20:35:12.647Z,18.11
2018-06-28T20:37:41.684Z,18.09
2018-06-28T20:40:11.058Z,17.98
2018-06-28T20:42:40.038Z,17.96
2018-06-28T20:45:09.214Z,17.93
2018-06-28T20:47:38.268Z,17.94
2018-06-28T20:50:07.400Z,17.96
2018-06-28T20:52:36.482Z,17.95
2018-06-28T20:55:05.693Z,17.88
2018-06-28T20:57:34.780Z,17.84
2018-06-28T21:00:03.909Z,17.82
2018-06-28T21:02:32.921Z,17.83
2018-06-28T21:05:01.955Z,17.82
2018-06-28T21:07:31.060Z,17.85
2018-06-28T21:10:00.148Z,17.75
2018-06-28T21:12:29.152Z,17.72
2018-06-28T21:14:58.116Z,17.71
2018-06-28T21:17:27.105Z,17.75
2018-06-28T21:19:56.071Z,17.76
2018-06-28T21:22:25.124Z,17.73
2018-06-28T21:24:54.184Z,17.74
2018-06-28T21:27:23.135Z,17.76
2018-06-28T21:29:52.201Z,17.76
2018-06-28T21:32:21.184Z,17.80
2018-06-28T21:34:50.284Z,17.81
2018-06-28T21:37:19.285Z,17.83
2018-06-28T21:39:48.316Z,17.79
2018-06-28T21:42:17.314Z,17.80
2018-06-28T21:44:46.276Z,17.79
2018-06-28T21:47:15.260Z,17.81
2018-06-28T21:49:44.290Z,17.79
2018-06-28T21:52:13.272Z,17.75
2018-06-28T21:54:42.416Z,17.71
2018-06-28T21:57:11.401Z,17.70
2018-06-28T21:59:40.369Z,17.66
2018-06-28T22:02:09.476Z,17.58
2018-06-28T22:04:38.464Z,17.55
2018-06-28T22:07:07.499Z,17.54
2018-06-28T22:09:36.464Z,17.53
2018-06-28T22:12:05.616Z,17.56
2018-06-28T22:14:34.620Z,17.53
2018-06-28T22:17:03.668Z,17.53
2018-06-28T22:19:32.640Z,17.58
2018-06-28T22:22:01.647Z,17.59
2018-06-28T22:24:30.704Z,17.61
2018-06-28T22:26:59.705Z,17.57
2018-06-28T22:29:28.688Z,17.59
2018-06-28T22:31:57.727Z,17.62
2018-06-28T22:34:26.721Z,17.61
2018-06-28T22:36:55.701Z,17.62
2018-06-28T22:39:24.698Z,17.65
2018-06-28T22:41:53.676Z,17.62
2018-06-28T22:44:22.720Z,17.61
2018-06-28T22:46:51.716Z,17.61
2018-06-28T22:49:20.757Z,17.65
2018-06-28T22:51:49.752Z,17.69
2018-06-28T22:54:18.784Z,17.63
2018-06-28T22:56:47.846Z,17.61
2018-06-28T22:59:16.964Z,17.59
2018-06-28T23:01:46.041Z,17.60
2018-06-28T23:04:15.057Z,17.60
2018-06-28T23:06:44.032Z,17.53
2018-06-28T23:09:13.117Z,17.52
2018-06-28T23:11:42.091Z,17.49
2018-06-28T23:14:11.049Z,17.51
2018-06-28T23:16:40.085Z,17.50
2018-06-28T23:19:09.166Z,17.48
2018-06-28T23:21:38.115Z,17.49
2018-06-28T23:24:07.204Z,17.49
2018-06-28T23:26:36.218Z,17.51
2018-06-28T23:29:05.248Z,17.50
2018-06-28T23:31:34.249Z,17.45
2018-06-28T23:34:03.350Z,17.47
2018-06-28T23:36:32.395Z,17.43
2018-06-28T23:39:01.369Z,17.47
2018-06-28T23:41:30.539Z,17.45
2018-06-28T23:43:59.465Z,17.42
2018-06-28T23:46:28.485Z,17.41
2018-06-28T23:48:57.508Z,17.38
2018-06-28T23:51:26.524Z,17.34
2018-06-28T23:53:55.544Z,17.32
2018-06-28T23:56:24.639Z,17.34
2018-06-28T23:58:53.634Z,17.30
